Data for 06/10/2016

Time Sea-Level Adjusted Pressure Absolute Pressure Temperature Relative Humidity Dew Point   
(mb) (inHg) (mb) (inHg) (C) (F) (%) (C) (F)
00:05 1016 30 845 24.95 15.2 59.3 62 8 46.4
00:10 1016 30 845 24.95 14.8 58.7 63 7.9 46.1
00:15 1016 30 845 24.95 15 59.1 61 7.7 45.9
00:20 1016 30 845 24.95 15.3 59.5 60 7.7 45.9
00:25 1016 30 845 24.95 15.3 59.6 61 7.8 46.1
00:30 1016 30 846 24.98 15.1 59.1 62 7.8 46.1
00:35 1016 30 846 24.98 14.6 58.3 64 8 46.3
00:40 1016 30 845 24.95 14.3 57.7 65 7.8 46
00:45 1016 30 845 24.95 14.3 57.7 65 7.9 46.3
00:50 1016 30 845 24.95 14 57.3 66 8 46.3
00:55 1016 30 845 24.95 13.8 56.8 67 7.9 46.2
01:00 1016 30 845 24.95 13.7 56.7 67 7.8 46
01:05 1016 30 846 24.98 13.7 56.6 67 7.7 45.9
01:10 1016 30 846 24.98 13.8 56.8 66 7.7 45.8
01:15 1016 30 846 24.98 13.8 56.8 66 7.6 45.7
01:20 1016 30 846 24.98 13.7 56.6 67 7.6 45.7
01:25 1016 30 846 24.98 13.6 56.4 66 7.5 45.5
01:30 1016 30 846 24.98 13.5 56.4 67 7.5 45.5
01:35 1016 30 846 24.98 13.3 56 67 7.4 45.4
01:40 1016 30 846 24.98 13.3 56 67 7.4 45.4
01:45 1016 30 846 24.98 13.2 55.7 68 7.5 45.5
01:50 1016 30 846 24.98 12.8 55 71 7.6 45.8
01:55 1016 30 846 24.98 12.4 54.4 72 7.5 45.5
02:00 1016 30 846 24.98 12.4 54.4 71 7.4 45.2
02:05 1016 30 846 24.98 12.7 54.9 69 7.2 44.9
02:10 1016 30 846 24.98 13 55.5 69 7.4 45.4
02:15 1016 30 846 24.98 13.1 55.7 68 7.4 45.4
02:20 1016 30 846 24.98 13.2 55.7 68 7.4 45.3
02:25 1016 30 846 24.98 13 55.4 69 7.6 45.6
02:30 1016 30 846 24.98 12.8 55 70 7.4 45.4
02:35 1016 30 846 24.98 12.7 54.9 70 7.5 45.5
02:40 1017 30.03 846 24.98 12.5 54.5 71 7.5 45.4
02:45 1017 30.03 846 24.98 12.5 54.6 71 7.4 45.2
02:50 1016 30 846 24.98 12.6 54.7 70 7.2 45
02:55 1016 30 846 24.98 13.2 55.7 67 7.2 44.9
03:00 1016 30 846 24.98 13.3 56 68 7.6 45.6
03:05 1016 30 846 24.98 12.9 55.2 70 7.5 45.5
03:10 1016 30 846 24.98 12.6 54.6 71 7.4 45.4
03:15 1016 30 846 24.98 12.4 54.3 71 7.4 45.2
03:20 1016 30 846 24.98 12.4 54.3 72 7.4 45.4
03:25 1016 30 846 24.98 12.3 54.1 73 7.6 45.7
03:30 1016 30 846 24.98 12.4 54.3 72 7.4 45.4
03:35 1016 30 845 24.95 12.4 54.3 72 7.4 45.4
03:40 1016 30 845 24.95 12.2 54 72 7.4 45.3
03:45 1016 30 845 24.95 12.1 53.7 73 7.4 45.3
03:50 1016 30 846 24.98 11.7 53 74 7.3 45.1
03:55 1016 30 845 24.95 11.4 52.6 74 7.1 44.8
04:00 1016 30 845 24.95 11.5 52.6 74 7.1 44.8
04:05 1016 30 845 24.95 11.5 52.6 75 7.2 44.9
04:10 1016 30 845 24.95 11.5 52.6 75 7.2 44.9
04:15 1016 30 845 24.95 11.4 52.5 76 7.3 45.1
04:20 1016 30 845 24.95 11.2 52.2 77 7.3 45.2
04:25 1016 30 845 24.95 11 51.9 77 7.3 45.1
04:30 1016 30 845 24.95 11.1 52 77 7.2 44.9
04:35 1016 30 845 24.95 11.3 52.3 76 7.3 45.1
04:40 1016 30 845 24.95 11.5 52.7 76 7.5 45.6
04:45 1016 30 845 24.95 12 53.6 75 7.7 45.8
04:50 1016 30 845 24.95 12.5 54.4 73 7.8 46.1
04:55 1016 30 845 24.95 13 55.4 71 8 46.4
05:00 1016 30 845 24.95 13.6 56.5 69 8.2 46.7
05:05 1016 30 845 24.95 14 57.3 68 8.3 47
05:10 1016 30 845 24.95 14.3 57.8 68 8.5 47.2
05:15 1016 30 845 24.95 14.5 58.1 67 8.4 47.1
05:20 1016 30 845 24.95 14.9 58.8 65 8.4 47.1
05:25 1016 30 845 24.95 15.1 59.1 65 8.5 47.3
05:30 1016 30 845 24.95 15.2 59.4 64 8.5 47.3
05:35 1016 30 845 24.95 15.4 59.8 63 8.6 47.4
05:40 1016 30 845 24.95 15.6 60 63 8.6 47.6
05:45 1016 30 845 24.95 15.6 60.1 63 8.7 47.7
05:50 1016 30 845 24.95 15.7 60.2 63 8.7 47.6
05:55 1016 30 845 24.95 15.6 60.2 64 8.8 47.9
06:00 1016 30 846 24.98 15.2 59.3 65 8.6 47.5
06:05 1016 30 846 24.98 15.4 59.7 64 8.6 47.5
06:10 1016 30 845 24.95 15.9 60.7 62 8.7 47.7
06:15 1016 30 845 24.95 16.2 61.2 61 8.8 47.8
06:20 1016 30 846 24.98 16.3 61.4 61 9 48.1
06:25 1016 30 846 24.98 16.3 61.4 61 8.8 47.9
06:30 1016 30 846 24.98 16.7 62 59 8.8 47.8
06:35 1016 30 845 24.95 16.7 62.1 58 8.6 47.5
06:40 1016 30 845 24.95 16.9 62.4 59 9 48.3
06:45 1016 30 845 24.95 16.9 62.5 59 8.9 48
06:50 1016 30 845 24.95 16.9 62.4 59 8.8 47.8
06:55 1016 30 846 24.98 16.5 61.6 59 8.6 47.5
07:00 1016 30 845 24.95 16.3 61.3 60 8.5 47.3
07:05 1016 30 845 24.95 16.8 62.2 58 8.6 47.4
07:10 1016 30 845 24.95 17.2 63 58 9 48.1
07:15 1016 30 845 24.95 17.2 62.9 59 9.2 48.5
07:20 1016 30 846 24.98 17.1 62.8 59 9.2 48.5
07:25 1016 30 845 24.95 16.3 61.4 60 8.6 47.5
07:30 1016 30 845 24.95 16.7 62 58 8.5 47.4
07:35 1016 30 845 24.95 16.7 62.1 58 8.6 47.5
07:40 1016 30 846 24.98 16 60.7 60 8.2 46.8
07:45 1016 30 846 24.98 16.4 61.6 57 8.1 46.5
07:50 1016 30 846 24.98 15.9 60.6 59 7.9 46.2
07:55 1016 30 846 24.98 16.4 61.5 57 7.9 46.2
08:00 1016 30 846 24.98 16.2 61.1 59 8.3 47
08:05 1016 30 845 24.95 15.9 60.6 58 7.9 46.1
08:10 1016 30 845 24.95 16 60.8 58 7.7 45.9
08:15 1016 30 845 24.95 17.1 62.9 55 8.1 46.5
08:20 1016 30 845 24.95 17.4 63.3 54 8.1 46.6
08:25 1016 30 845 24.95 18.4 65.1 50 8 46.5
08:30 1016 30 845 24.95 19.5 67.2 46 7.7 45.9
08:35 1016 30 845 24.95 19.7 67.4 49 8.7 47.6
08:40 1016 30 845 24.95 20 68 46 8.3 46.9
08:45 1016 30 845 24.95 20.4 68.8 43 7.6 45.8
08:50 1016 30 845 24.95 20.4 68.7 47 8.7 47.7
08:55 1016 30 845 24.95 20.4 68.7 47 8.7 47.7
09:00 1016 30 845 24.95 20 68 48 8.9 48.1
09:05 1016 30 845 24.95 19.7 67.5 50 9.2 48.5
09:10 1016 30 845 24.95 19.9 67.8 49 8.9 48
09:15 1016 30 845 24.95 20.3 68.5 48 8.9 48.1
09:20 1016 30 845 24.95 20.8 69.5 45 8.6 47.5
09:25 1016 30 845 24.95 21 69.8 46 9 48.1
09:30 1015 29.97 845 24.95 20.9 69.6 46 9.1 48.4
09:35 1015 29.97 845 24.95 20.7 69.2 48 9.5 49.1
09:40 1015 29.97 844 24.92 20.5 68.9 48 9.2 48.6
09:45 1015 29.97 844 24.92 21.1 70 47 9.4 48.9
09:50 1015 29.97 844 24.92 21 69.7 48 9.6 49.3
09:55 1015 29.97 844 24.92 21.4 70.4 42 8.1 46.6
10:00 1015 29.97 844 24.92 22.3 72.1 39 7.9 46.3
10:05 1015 29.97 844 24.92 22.8 73 40 8.8 47.9
10:10 1015 29.97 844 24.92 22.9 73.1 34 6.4 43.4
10:15 1015 29.97 844 24.92 23.6 74.4 33 6.4 43.5
10:20 1015 29.97 844 24.92 24.2 75.6 31 6 42.9
10:25 1015 29.97 844 24.92 24.2 75.5 33 7.1 44.7
10:30 1015 29.97 844 24.92 24.2 75.6 31 6.4 43.4
10:35 1014 29.94 844 24.92 24.4 75.9 30 6 42.9
10:40 1014 29.94 844 24.92 24.7 76.4 31 6.5 43.6
10:45 1014 29.94 843 24.89 24.7 76.4 32 7 44.7
10:50 1014 29.94 843 24.89 24.2 75.5 33 7.1 44.8
10:55 1014 29.94 843 24.89 24.1 75.3 35 8 46.4
11:00 1014 29.94 843 24.89 24.4 75.9 33 7.1 44.8
11:05 1014 29.94 843 24.89 24.3 75.8 33 7.4 45.4
11:10 1014 29.94 843 24.89 24.7 76.5 32 7.3 45.2
11:15 1014 29.94 843 24.89 24.4 76 32 7 44.5
11:20 1014 29.94 843 24.89 24.2 75.6 32 6.7 44
11:25 1014 29.94 843 24.89 24.3 75.8 32 6.6 43.9
11:30 1014 29.94 843 24.89 24.4 76 34 7.8 46.1
11:35 1014 29.94 843 24.89 24.8 76.6 32 7.3 45.2
11:40 1014 29.94 843 24.89 24.8 76.6 33 7.6 45.7
11:45 1013 29.91 843 24.89 24.4 76 34 7.6 45.8
11:50 1014 29.94 843 24.89 24.5 76.1 36 8.8 47.8
11:55 1013 29.91 843 24.89 24.3 75.7 35 8.1 46.6
12:00 1013 29.91 843 24.89 24.4 76 34 7.8 46.1
12:05 1013 29.91 843 24.89 24.7 76.4 35 8.3 46.9
12:10 1013 29.91 843 24.89 24.8 76.6 34 7.9 46.2
12:15 1013 29.91 842 24.86 25.4 77.7 34 8.6 47.5
12:20 1013 29.91 843 24.89 24.8 76.6 34 8.3 46.9
12:25 1013 29.91 842 24.86 25.3 77.6 34 8.4 47.2
12:30 1013 29.91 842 24.86 25.5 77.9 34 8.8 47.9
12:35 1013 29.91 842 24.86 25.7 78.2 33 8.3 47
12:40 1013 29.91 842 24.86 25.7 78.3 32 8 46.4
12:45 1013 29.91 842 24.86 26.1 78.9 32 8.4 47.2
12:50 1013 29.91 842 24.86 26.7 80.1 31 8.7 47.6
12:55 1013 29.91 842 24.86 27.1 80.8 30 8.3 46.9
13:00 1013 29.91 842 24.86 27 80.6 31 8.5 47.4
13:05 1013 29.91 842 24.86 27.2 80.9 30 8.3 46.9
13:10 1013 29.91 842 24.86 27.3 81.2 30 8.6 47.4
13:15 1013 29.91 842 24.86 26.9 80.4 32 8.9 48.1
13:20 1013 29.91 842 24.86 27.4 81.3 31 8.9 48.1
13:25 1013 29.91 842 24.86 27.9 82.1 29 8.6 47.5
13:30 1013 29.91 842 24.86 27.6 81.6 30 8.5 47.3
13:35 1013 29.91 842 24.86 27 80.5 31 8.6 47.5
13:40 1013 29.91 842 24.86 27.2 80.9 31 8.7 47.6
13:45 1013 29.91 842 24.86 27.5 81.5 29 8.1 46.6
13:50 1013 29.91 842 24.86 27.6 81.6 32 9.7 49.5
13:55 1013 29.91 842 24.86 26.5 79.7 35 9.8 49.7
14:00 1013 29.91 842 24.86 26.3 79.3 33 8.9 48
14:05 1013 29.91 842 24.86 26.5 79.6 32 8.8 47.9
14:10 1013 29.91 842 24.86 26.6 79.9 30 8 46.4
14:15 1013 29.91 842 24.86 26.8 80.2 31 8.5 47.3
14:20 1012 29.88 842 24.86 27.2 81 31 9.1 48.4
14:25 1012 29.88 842 24.86 27.4 81.4 29 8.2 46.7
14:30 1012 29.88 842 24.86 27.7 81.9 30 8.9 48
14:35 1012 29.88 842 24.86 27.5 81.4 29 8.2 46.8
14:40 1012 29.88 842 24.86 27.5 81.5 30 8.7 47.6
14:45 1012 29.88 842 24.86 27.9 82.2 30 9.2 48.6
14:50 1012 29.88 842 24.86 27.5 81.6 31 9.4 48.9
14:55 1012 29.88 842 24.86 28 82.4 28 8.2 46.7
15:00 1012 29.88 842 24.86 28.1 82.6 29 8.5 47.3
15:05 1012 29.88 841 24.83 28.6 83.4 25 6.9 44.5
15:10 1012 29.88 841 24.83 28.5 83.3 26 7.7 45.8
15:15 1012 29.88 841 24.83 28.5 83.3 25 6.6 43.9
15:20 1012 29.88 841 24.83 28.8 83.8 26 7.7 45.8
15:25 1012 29.88 841 24.83 28.7 83.6 24 6.4 43.5
15:30 1012 29.88 841 24.83 29.6 85.3 22 6.2 43.1
15:35 1012 29.88 841 24.83 29.6 85.3 21 5.2 41.3
15:40 1012 29.88 841 24.83 30.4 86.8 20 5 41
15:45 1012 29.88 841 24.83 30.4 86.6 19 4.7 40.5
15:50 1012 29.88 841 24.83 30.8 87.5 14 0.6 33.1
15:55 1012 29.88 841 24.83 30.6 87 13 -0.2 31.6
16:00 1012 29.88 841 24.83 30.7 87.3 13 -0.3 31.5
16:05 1012 29.88 841 24.83 30.7 87.2 13 -0.2 31.6
16:10 1012 29.88 841 24.83 30.4 86.7 13 -0.6 31
16:15 1012 29.88 841 24.83 30.3 86.5 14 -0.2 31.6
16:20 1012 29.88 841 24.83 30.3 86.5 13 -1.3 29.7
16:25 1012 29.88 841 24.83 30.2 86.4 13 -1 30.3
16:30 1012 29.88 841 24.83 30.2 86.4 12 -1.8 28.7
16:35 1012 29.88 841 24.83 30.3 86.6 12 -1.8 28.7
16:40 1012 29.88 841 24.83 30.3 86.6 14 -0.1 31.9
16:45 1012 29.88 841 24.83 30.5 86.8 13 -0.8 30.6
16:50 1011 29.85 841 24.83 30.2 86.4 13 -0.9 30.3
16:55 1012 29.88 841 24.83 30.2 86.3 14 -0.2 31.7
17:00 1011 29.85 841 24.83 29.9 85.9 14 -0.6 31
17:05 1011 29.85 841 24.83 30 85.9 14 -0.5 31.1
17:10 1011 29.85 841 24.83 30 85.9 13 -1.2 29.8
17:15 1011 29.85 841 24.83 29.5 85.2 13 -1.6 29.2
17:20 1011 29.85 841 24.83 29.8 85.6 12 -2.6 27.4
17:25 1012 29.88 841 24.83 30 86 12 -1.7 29
17:30 1011 29.85 841 24.83 29.9 85.8 13 -1.6 29.1
17:35 1011 29.85 841 24.83 29.7 85.5 13 -1.3 29.7
17:40 1011 29.85 841 24.83 29.4 85 12 -2.3 27.9
17:45 1012 29.88 841 24.83 29.3 84.7 13 -1.6 29.1
17:50 1011 29.85 841 24.83 29.2 84.6 12 -2.3 27.8
17:55 1011 29.85 841 24.83 29.4 84.8 13 -1.7 28.9
18:00 1012 29.88 841 24.83 29.3 84.8 13 -1.2 29.8
18:05 1012 29.88 841 24.83 29.4 84.8 14 -0.5 31
18:10 1012 29.88 841 24.83 29.2 84.5 15 -0.1 31.9
18:15 1012 29.88 841 24.83 28.9 84 14 -1.2 29.8
18:20 1012 29.88 841 24.83 28.9 84 14 -1.1 30
18:25 1012 29.88 841 24.83 28.9 84 14 -0.8 30.5
18:30 1012 29.88 841 24.83 28.8 83.9 14 -0.5 31
18:35 1012 29.88 841 24.83 28.6 83.6 15 -0.7 30.8
18:40 1012 29.88 841 24.83 28.4 83.2 15 -0.4 31.4
18:45 1012 29.88 841 24.83 28.3 83 15 -0.7 30.8
18:50 1012 29.88 841 24.83 28.3 82.9 15 -0.5 31.1
18:55 1012 29.88 841 24.83 28.1 82.7 17 0.9 33.6
19:00 1012 29.88 841 24.83 27.9 82.2 18 1.4 34.5
19:05 1012 29.88 841 24.83 27.9 82.3 17 0.7 33.3
19:10 1012 29.88 841 24.83 27.9 82.2 16 -0.2 31.7
19:15 1012 29.88 841 24.83 28 82.4 16 -0.2 31.7
19:20 1012 29.88 841 24.83 27.8 82.1 14 -1.3 29.6
19:25 1012 29.88 841 24.83 27.8 82.1 15 -1.1 30
19:30 1012 29.88 841 24.83 27.9 82.2 15 -1.2 29.8
19:35 1012 29.88 841 24.83 27.9 82.2 15 -0.7 30.8
19:40 1012 29.88 841 24.83 27.7 81.8 15 -0.7 30.8
19:45 1012 29.88 841 24.83 27.4 81.4 16 -0.6 30.9
19:50 1012 29.88 841 24.83 27.1 80.7 18 0.7 33.2
19:55 1012 29.88 841 24.83 26.7 80 18 0.4 32.8
20:00 1012 29.88 841 24.83 26.4 79.6 18 0.8 33.5
20:05 1012 29.88 841 24.83 26.2 79.2 19 1.1 33.9
20:10 1012 29.88 841 24.83 26.2 79.1 17 -0.3 31.5
20:15 1012 29.88 841 24.83 26.5 79.6 17 -0.2 31.7
20:20 1012 29.88 841 24.83 26.5 79.6 17 -0.1 31.8
20:25 1012 29.88 842 24.86 26.4 79.5 16 -1.3 29.6
20:30 1013 29.91 842 24.86 26.4 79.6 17 -0.6 30.9
20:35 1013 29.91 842 24.86 26.4 79.5 17 -0.2 31.7
20:40 1013 29.91 842 24.86 26.3 79.4 17 -0.4 31.2
20:45 1013 29.91 842 24.86 26.2 79.1 18 -0.1 31.8
20:50 1013 29.91 842 24.86 26 78.7 18 -0.2 31.6
20:55 1013 29.91 842 24.86 26 78.9 18 -0.1 31.9
21:00 1013 29.91 842 24.86 25.9 78.7 18 -0.1 31.9
21:05 1013 29.91 842 24.86 26.1 78.9 18 0.3 32.5
21:10 1013 29.91 842 24.86 26.1 79 19 0.7 33.3
21:15 1013 29.91 842 24.86 25.9 78.6 18 0.4 32.6
21:20 1013 29.91 842 24.86 25.8 78.4 19 0.5 32.8
21:25 1013 29.91 842 24.86 25.8 78.4 18 -0.4 31.3
21:30 1013 29.91 842 24.86 25.9 78.7 18 0.3 32.5
21:35 1013 29.91 842 24.86 25.7 78.3 18 -0.3 31.4
21:40 1013 29.91 842 24.86 25.6 78.1 18 -0.2 31.6
21:45 1013 29.91 842 24.86 25.5 77.9 18 -0.5 31.1
21:50 1013 29.91 842 24.86 25.7 78.3 17 -0.6 31
21:55 1013 29.91 842 24.86 25.7 78.2 18 -0.5 31
22:00 1013 29.91 842 24.86 25.4 77.8 18 -0.3 31.4
22:05 1013 29.91 842 24.86 25.3 77.5 18 -0.4 31.2
22:10 1013 29.91 842 24.86 25.3 77.5 18 -0.2 31.6
22:15 1013 29.91 842 24.86 25.2 77.3 19 -0.2 31.7
22:20 1013 29.91 842 24.86 25.2 77.3 18 -0.2 31.6
22:25 1013 29.91 842 24.86 25.1 77.2 18 -0.4 31.4
22:30 1013 29.91 843 24.89 24.9 76.9 19 0.1 32.2
22:35 1013 29.91 843 24.89 24.7 76.4 23 2.5 36.5
22:40 1013 29.91 843 24.89 23.2 73.7 28 3.6 38.5
22:45 1014 29.94 843 24.89 21.9 71.4 30 3.6 38.5
22:50 1014 29.94 843 24.89 21.3 70.3 30 3.4 38.2
22:55 1014 29.94 843 24.89 21.1 69.9 31 3.6 38.4
23:00 1014 29.94 843 24.89 20.9 69.7 34 4.5 40
23:05 1014 29.94 843 24.89 20.7 69.2 35 4.7 40.5
23:10 1014 29.94 843 24.89 20.3 68.5 36 5 41.1
23:15 1014 29.94 843 24.89 19.8 67.6 42 6.6 43.9
23:20 1014 29.94 843 24.89 19.1 66.3 46 7.2 45
23:25 1014 29.94 843 24.89 18.6 65.5 48 7.5 45.6
23:30 1014 29.94 843 24.89 18.2 64.8 50 7.7 45.9
23:35 1014 29.94 843 24.89 18 64.3 51 7.7 45.9
23:40 1014 29.94 843 24.89 17.9 64.2 51 7.8 46
23:45 1014 29.94 843 24.89 17.8 64 52 7.8 46.1
23:50 1014 29.94 843 24.89 17.6 63.6 53 7.9 46.2
23:55 1014 29.94 843 24.89 17.2 63 54 7.8 46.1
24:00 1014 29.94 843 24.89 17.1 62.7 54 7.8 46